Hlavní strana
METAR-TAF:

METAR-TAF

Letiště :

Greenville Downtown Airport

Greenville, Jižní Karolína, Spojené státy americké

zeměpisná šířka: 34-50-46N, zeměpisná délka: 082-20-46W, výška: 319 m

Aktuální stav počasí

Zpráva byla vytvořena před 13 minutami, v 17:53 UTC
Západoseverozápadní vítr 7 kt
Teplota 9°C
Vlhkost vzduchu 29%
Tlak 1019 hPa
Viditelnost: 16.1 km
Jasno

METAR: KGMU 271753Z 29007KT 10SM CLR 09/M08 A3008 RMK AO2 SLP190 T00891083 10089 20011 58000

Čas: 13:06 (18:06 UTC)

Předpověď počasí

Zpráva byla vytvořena před 29 minutami, v 17:37 UTC
Předpověď platná od 27 v 18 UTC do 28 v 18 UTC
Západní vítr 10 kt
Viditelnost: 10 km
Jasno
Od 28 v 0900 UTC
Západojihozápadní vítr 4 kt
Viditelnost: 10 km
Skoro jasno ve výšce 25000 ft
Od 28 v 1700 UTC
Západojihozápadní vítr 12 kt s nárazy do 19 kt
Viditelnost: 10 km
Polojasno ve výšce 8000 ft

TAF: KGMU 271737Z 2718/2818 27010KT P6SM SKC FM280900 24004KT P6SM FEW250 FM281700 24012G19KT P6SM SCT080

Stav a předpovědi počasí z více než 4 000 letišť (zprávy METAR a TAF).

Červené a žluté tečky na mapě představují dostupné meteorologické stanice.

Když kurzor umístíte na tečku, zobrazí se název stanice.

Pak kliknutím zobrazíte stav a předpověď počasí.

Chcete-li změnit mapu, kliknutím na zelené tlačítko se znaménkem +mapu přiblížíte, kliknutím na zelené tlačítko se znaménkem – mapu oddálíte a kliknutím na zelené šipky přejdete na sousední mapy.


METAR-TAF: